RYR687 EPKK-EPPO
Flight info
| Callsign | RYR687 |
|---|---|
| Flight time | 0h 44m |
| Altitude | 30000 |
| Route | LUMVE DCT NUDRO/N0425F280 L619 ARMEX DCT NILPU |
| Aircraft | B738/M-SDE2E3FGHIRWXY/LB1 |
Departure
| Time | 2026-04-24 15:02 |
|---|---|
| Airport | Kraków John Paul II International Airport (EPKK) |
Arrival
| Time | 2026-04-24 15:46 |
|---|---|
| Airport | Poznań-Ławica Airport (EPPO) |
| Time | Latitude | Longitude | Altitude | Speed | Heading |
|---|---|---|---|---|---|
| 2026-04-24 14:41 | 50.07452 | 19.80474 | 799 ft | 0 kts | 106° |
| 2026-04-24 14:51 | 50.07458 | 19.80443 | 799 ft | 4 kts | 110° |
| 2026-04-24 14:51 | 50.07469 | 19.80405 | 799 ft | 4 kts | 128° |
| 2026-04-24 14:52 | 50.07472 | 19.80399 | 799 ft | 0 kts | 137° |
| 2026-04-24 14:55 | 50.07471 | 19.80408 | 799 ft | 2 kts | 91° |
| 2026-04-24 14:55 | 50.07525 | 19.80421 | 799 ft | 12 kts | 356° |
| 2026-04-24 14:55 | 50.07625 | 19.80411 | 799 ft | 16 kts | 345° |
| 2026-04-24 14:55 | 50.07714 | 19.80379 | 799 ft | 14 kts | 347° |
| 2026-04-24 14:56 | 50.07815 | 19.80347 | 799 ft | 13 kts | 347° |
| 2026-04-24 14:56 | 50.07847 | 19.80337 | 799 ft | 0 kts | 347° |
| 2026-04-24 15:00 | 50.07861 | 19.80332 | 799 ft | 7 kts | 347° |
| 2026-04-24 15:00 | 50.07951 | 19.80300 | 799 ft | 18 kts | 347° |
| 2026-04-24 15:00 | 50.08015 | 19.80226 | 799 ft | 4 kts | 262° |
| 2026-04-24 15:01 | 50.08013 | 19.80208 | 799 ft | 0 kts | 259° |
| 2026-04-24 15:01 | 50.08012 | 19.80208 | 799 ft | 0 kts | 259° |
| 2026-04-24 15:01 | 50.07995 | 19.80070 | 800 ft | 45 kts | 259° |
| 2026-04-24 15:02 | 50.07861 | 19.79115 | 800 ft | 130 kts | 257° |
| 2026-04-24 15:02 | 50.07623 | 19.77490 | 1200 ft | 163 kts | 260° |
| 2026-04-24 15:02 | 50.07373 | 19.75722 | 2126 ft | 176 kts | 263° |
| 2026-04-24 15:02 | 50.07120 | 19.73757 | 2880 ft | 191 kts | 262° |
| 2026-04-24 15:03 | 50.06861 | 19.71736 | 3871 ft | 189 kts | 261° |
| 2026-04-24 15:03 | 50.06573 | 19.69706 | 4621 ft | 202 kts | 261° |
| 2026-04-24 15:03 | 50.06246 | 19.67418 | 4940 ft | 227 kts | 261° |
| 2026-04-24 15:03 | 50.05895 | 19.64974 | 5649 ft | 236 kts | 261° |
| 2026-04-24 15:04 | 50.05529 | 19.62420 | 6305 ft | 250 kts | 261° |
| 2026-04-24 15:04 | 50.05141 | 19.59689 | 7047 ft | 264 kts | 261° |
| 2026-04-24 15:04 | 50.04741 | 19.56867 | 8071 ft | 268 kts | 261° |
| 2026-04-24 15:04 | 50.04336 | 19.54013 | 9099 ft | 274 kts | 261° |
| 2026-04-24 15:05 | 50.03921 | 19.51091 | 10072 ft | 279 kts | 261° |
| 2026-04-24 15:05 | 50.03492 | 19.48061 | 10687 ft | 299 kts | 261° |
| 2026-04-24 15:05 | 50.03022 | 19.44731 | 10909 ft | 329 kts | 261° |
| 2026-04-24 15:05 | 50.02867 | 19.41097 | 11311 ft | 344 kts | 280° |
| 2026-04-24 15:06 | 50.03552 | 19.37569 | 12075 ft | 348 kts | 294° |
| 2026-04-24 15:06 | 50.04516 | 19.34097 | 12926 ft | 353 kts | 295° |
| 2026-04-24 15:06 | 50.05535 | 19.30535 | 13759 ft | 359 kts | 295° |
| 2026-04-24 15:06 | 50.06556 | 19.26961 | 14509 ft | 363 kts | 295° |
| 2026-04-24 15:07 | 50.07565 | 19.23396 | 15326 ft | 365 kts | 295° |
| 2026-04-24 15:07 | 50.08583 | 19.19762 | 16173 ft | 367 kts | 295° |
| 2026-04-24 15:07 | 50.09603 | 19.16095 | 16973 ft | 370 kts | 295° |
| 2026-04-24 15:07 | 50.10626 | 19.12400 | 17748 ft | 374 kts | 295° |
| 2026-04-24 15:08 | 50.11656 | 19.08663 | 18467 ft | 377 kts | 295° |
| 2026-04-24 15:08 | 50.12694 | 19.04889 | 19132 ft | 380 kts | 295° |
| 2026-04-24 15:08 | 50.13740 | 19.01078 | 19793 ft | 384 kts | 295° |
| 2026-04-24 15:08 | 50.14792 | 18.97239 | 20447 ft | 387 kts | 295° |
| 2026-04-24 15:09 | 50.15854 | 18.93358 | 21082 ft | 391 kts | 295° |
| 2026-04-24 15:09 | 50.16925 | 18.89441 | 21704 ft | 394 kts | 295° |
| 2026-04-24 15:09 | 50.17995 | 18.85521 | 22301 ft | 398 kts | 295° |
| 2026-04-24 15:09 | 50.19082 | 18.81526 | 22901 ft | 401 kts | 295° |
| 2026-04-24 15:10 | 50.20176 | 18.77505 | 23494 ft | 404 kts | 295° |
| 2026-04-24 15:10 | 50.21278 | 18.73442 | 24008 ft | 407 kts | 295° |
| 2026-04-24 15:10 | 50.22555 | 18.69498 | 24507 ft | 406 kts | 307° |
| 2026-04-24 15:10 | 50.24481 | 18.66316 | 25143 ft | 402 kts | 321° |
| 2026-04-24 15:11 | 50.26826 | 18.64013 | 25894 ft | 397 kts | 334° |
| 2026-04-24 15:11 | 50.29345 | 18.62293 | 26680 ft | 393 kts | 336° |
| 2026-04-24 15:11 | 50.31869 | 18.60679 | 27384 ft | 391 kts | 337° |
| 2026-04-24 15:11 | 50.34392 | 18.59079 | 27886 ft | 393 kts | 336° |
| 2026-04-24 15:12 | 50.36936 | 18.57444 | 28332 ft | 396 kts | 336° |
| 2026-04-24 15:12 | 50.42037 | 18.54097 | 29448 ft | 396 kts | 336° |
| 2026-04-24 15:12 | 50.44568 | 18.52415 | 30032 ft | 396 kts | 336° |
| 2026-04-24 15:13 | 50.49676 | 18.49005 | 30017 ft | 397 kts | 336° |
| 2026-04-24 15:13 | 50.54709 | 18.45640 | 30029 ft | 392 kts | 336° |
| 2026-04-24 15:14 | 50.59440 | 18.41436 | 30043 ft | 393 kts | 320° |
| 2026-04-24 15:14 | 50.63650 | 18.35896 | 30032 ft | 394 kts | 321° |
| 2026-04-24 15:15 | 50.67883 | 18.30421 | 30017 ft | 393 kts | 321° |
| 2026-04-24 15:15 | 50.72119 | 18.24980 | 30024 ft | 391 kts | 321° |
| 2026-04-24 15:16 | 50.75838 | 18.18760 | 30030 ft | 391 kts | 309° |
| 2026-04-24 15:16 | 50.79060 | 18.11890 | 30035 ft | 391 kts | 308° |
| 2026-04-24 15:17 | 50.82299 | 18.04986 | 30021 ft | 391 kts | 308° |
| 2026-04-24 15:17 | 50.85573 | 17.98095 | 30030 ft | 392 kts | 309° |
| 2026-04-24 15:18 | 50.88857 | 17.91208 | 30033 ft | 393 kts | 309° |
| 2026-04-24 15:18 | 50.92153 | 17.84291 | 30045 ft | 394 kts | 308° |
| 2026-04-24 15:19 | 50.95406 | 17.77442 | 30020 ft | 376 kts | 308° |
| 2026-04-24 15:19 | 50.96956 | 17.74170 | 29723 ft | 366 kts | 308° |
| 2026-04-24 15:19 | 50.98464 | 17.70986 | 29349 ft | 359 kts | 308° |
| 2026-04-24 15:20 | 50.99948 | 17.67848 | 29012 ft | 351 kts | 308° |
| 2026-04-24 15:20 | 51.01404 | 17.64767 | 28603 ft | 346 kts | 308° |
| 2026-04-24 15:20 | 51.02841 | 17.61724 | 28203 ft | 342 kts | 308° |
| 2026-04-24 15:20 | 51.04253 | 17.58728 | 27818 ft | 338 kts | 308° |
| 2026-04-24 15:21 | 51.05662 | 17.55736 | 27418 ft | 335 kts | 308° |
| 2026-04-24 15:21 | 51.07053 | 17.52779 | 27036 ft | 333 kts | 308° |
| 2026-04-24 15:21 | 51.08450 | 17.49806 | 26664 ft | 341 kts | 308° |
| 2026-04-24 15:21 | 51.09896 | 17.46727 | 26279 ft | 353 kts | 308° |
| 2026-04-24 15:22 | 51.10869 | 17.44654 | 26000 ft | 352 kts | 308° |
| 2026-04-24 15:22 | 51.12325 | 17.41542 | 25592 ft | 348 kts | 308° |
| 2026-04-24 15:22 | 51.13766 | 17.38462 | 25194 ft | 344 kts | 308° |
| 2026-04-24 15:23 | 51.17052 | 17.33088 | 24375 ft | 337 kts | 323° |
| 2026-04-24 15:23 | 51.21238 | 17.29609 | 23290 ft | 341 kts | 336° |
| 2026-04-24 15:23 | 51.23449 | 17.28279 | 22857 ft | 337 kts | 337° |
| 2026-04-24 15:24 | 51.29917 | 17.24431 | 21723 ft | 324 kts | 337° |
| 2026-04-24 15:25 | 51.34087 | 17.21904 | 20996 ft | 316 kts | 337° |
| 2026-04-24 15:25 | 51.38161 | 17.19417 | 20295 ft | 310 kts | 337° |
| 2026-04-24 15:26 | 51.44127 | 17.15763 | 19275 ft | 305 kts | 337° |
| 2026-04-24 15:27 | 51.50391 | 17.12696 | 18209 ft | 321 kts | 351° |
| 2026-04-24 15:27 | 51.56974 | 17.13134 | 17064 ft | 312 kts | 1° |
| 2026-04-24 15:28 | 51.65440 | 17.14146 | 15688 ft | 298 kts | 0° |
| 2026-04-24 15:29 | 51.69538 | 17.14610 | 15043 ft | 294 kts | 0° |
| 2026-04-24 15:30 | 51.75817 | 17.15308 | 14045 ft | 308 kts | 1° |
| 2026-04-24 15:31 | 51.84262 | 17.16259 | 12558 ft | 298 kts | 1° |
| 2026-04-24 15:32 | 51.92321 | 17.17167 | 11464 ft | 277 kts | 1° |
| 2026-04-24 15:33 | 51.99630 | 17.17191 | 10587 ft | 256 kts | 354° |
| 2026-04-24 15:33 | 52.05034 | 17.16607 | 10037 ft | 261 kts | 354° |
| 2026-04-24 15:34 | 52.08669 | 17.16253 | 9428 ft | 259 kts | 355° |
| 2026-04-24 15:35 | 52.13787 | 17.15774 | 9084 ft | 233 kts | 354° |
| 2026-04-24 15:35 | 52.16906 | 17.16229 | 8854 ft | 227 kts | 16° |
| 2026-04-24 15:35 | 52.18425 | 17.17066 | 8684 ft | 234 kts | 14° |
| 2026-04-24 15:36 | 52.19989 | 17.17897 | 8508 ft | 238 kts | 15° |
| 2026-04-24 15:36 | 52.23070 | 17.19997 | 8106 ft | 245 kts | 39° |
| 2026-04-24 15:36 | 52.23988 | 17.22324 | 7904 ft | 249 kts | 68° |
| 2026-04-24 15:37 | 52.24145 | 17.25148 | 7644 ft | 254 kts | 95° |
| 2026-04-24 15:37 | 52.23698 | 17.27939 | 7430 ft | 254 kts | 105° |
| 2026-04-24 15:37 | 52.23430 | 17.30745 | 7120 ft | 247 kts | 77° |
| 2026-04-24 15:37 | 52.24077 | 17.33219 | 6915 ft | 234 kts | 45° |
| 2026-04-24 15:38 | 52.25295 | 17.34868 | 6730 ft | 226 kts | 23° |
| 2026-04-24 15:38 | 52.26751 | 17.35776 | 6525 ft | 223 kts | 15° |
| 2026-04-24 15:38 | 52.28231 | 17.36547 | 6323 ft | 223 kts | 15° |
| 2026-04-24 15:38 | 52.29739 | 17.36821 | 6077 ft | 218 kts | 348° |
| 2026-04-24 15:39 | 52.31091 | 17.35790 | 5803 ft | 217 kts | 322° |
| 2026-04-24 15:39 | 52.32042 | 17.33869 | 5508 ft | 221 kts | 297° |
| 2026-04-24 15:39 | 52.32559 | 17.31498 | 5231 ft | 222 kts | 290° |
| 2026-04-24 15:39 | 52.33032 | 17.29085 | 4935 ft | 224 kts | 291° |
| 2026-04-24 15:40 | 52.33509 | 17.26649 | 4617 ft | 225 kts | 291° |
| 2026-04-24 15:40 | 52.33986 | 17.24212 | 4316 ft | 225 kts | 291° |
| 2026-04-24 15:40 | 52.34547 | 17.21824 | 4046 ft | 223 kts | 292° |
| 2026-04-24 15:40 | 52.35070 | 17.19476 | 3770 ft | 216 kts | 290° |
| 2026-04-24 15:41 | 52.35527 | 17.17177 | 3486 ft | 209 kts | 289° |
| 2026-04-24 15:41 | 52.35948 | 17.14973 | 3227 ft | 202 kts | 288° |
| 2026-04-24 15:41 | 52.36360 | 17.12790 | 3012 ft | 193 kts | 288° |
| 2026-04-24 15:41 | 52.36741 | 17.10769 | 2950 ft | 182 kts | 288° |
| 2026-04-24 15:42 | 52.37102 | 17.08863 | 2947 ft | 175 kts | 288° |
| 2026-04-24 15:42 | 52.37466 | 17.06948 | 2961 ft | 177 kts | 288° |
| 2026-04-24 15:42 | 52.37829 | 17.05034 | 2891 ft | 170 kts | 288° |
| 2026-04-24 15:42 | 52.38167 | 17.03255 | 2713 ft | 164 kts | 288° |
| 2026-04-24 15:43 | 52.38501 | 17.01495 | 2498 ft | 160 kts | 287° |
| 2026-04-24 15:43 | 52.38828 | 16.99777 | 2284 ft | 156 kts | 288° |
| 2026-04-24 15:43 | 52.39149 | 16.98090 | 2078 ft | 153 kts | 288° |
| 2026-04-24 15:43 | 52.39457 | 16.96476 | 1868 ft | 141 kts | 287° |
| 2026-04-24 15:44 | 52.39741 | 16.94984 | 1698 ft | 137 kts | 287° |
| 2026-04-24 15:44 | 52.40021 | 16.93521 | 1492 ft | 136 kts | 288° |
| 2026-04-24 15:44 | 52.40304 | 16.92035 | 1308 ft | 132 kts | 288° |
| 2026-04-24 15:44 | 52.40578 | 16.90605 | 1124 ft | 131 kts | 288° |
| 2026-04-24 15:45 | 52.40859 | 16.89149 | 1013 ft | 136 kts | 288° |
| 2026-04-24 15:45 | 52.41140 | 16.87665 | 839 ft | 137 kts | 287° |
| 2026-04-24 15:45 | 52.41426 | 16.86178 | 657 ft | 136 kts | 285° |
| 2026-04-24 15:45 | 52.41700 | 16.84725 | 416 ft | 128 kts | 285° |
| 2026-04-24 15:46 | 52.41951 | 16.83404 | 306 ft | 114 kts | 283° |
| 2026-04-24 15:46 | 52.42171 | 16.82272 | 290 ft | 93 kts | 288° |
| 2026-04-24 15:46 | 52.42322 | 16.81493 | 291 ft | 50 kts | 287° |
| 2026-04-24 15:46 | 52.42405 | 16.81057 | 288 ft | 37 kts | 289° |
| 2026-04-24 15:47 | 52.42474 | 16.80716 | 288 ft | 28 kts | 288° |
| 2026-04-24 15:47 | 52.42459 | 16.80607 | 286 ft | 8 kts | 198° |
| 2026-04-24 15:47 | 52.42404 | 16.80583 | 287 ft | 8 kts | 195° |
| 2026-04-24 15:47 | 52.42351 | 16.80567 | 287 ft | 8 kts | 166° |
| 2026-04-24 15:48 | 52.42312 | 16.80660 | 291 ft | 14 kts | 109° |
| 2026-04-24 15:48 | 52.42273 | 16.80866 | 291 ft | 23 kts | 107° |
| 2026-04-24 15:48 | 52.42224 | 16.81121 | 287 ft | 23 kts | 107° |
| 2026-04-24 15:48 | 52.42176 | 16.81368 | 287 ft | 22 kts | 108° |
| 2026-04-24 15:49 | 52.42128 | 16.81611 | 291 ft | 22 kts | 108° |
| 2026-04-24 15:49 | 52.42083 | 16.81844 | 292 ft | 21 kts | 107° |
| 2026-04-24 15:49 | 52.42041 | 16.82062 | 293 ft | 21 kts | 107° |
| 2026-04-24 15:49 | 52.42000 | 16.82278 | 290 ft | 20 kts | 107° |
| 2026-04-24 15:50 | 52.41959 | 16.82492 | 287 ft | 19 kts | 107° |
| 2026-04-24 15:50 | 52.41919 | 16.82698 | 287 ft | 19 kts | 107° |
| 2026-04-24 15:50 | 52.41875 | 16.82890 | 289 ft | 17 kts | 129° |
| 2026-04-24 15:50 | 52.41801 | 16.82891 | 287 ft | 4 kts | 196° |
| 2026-04-24 15:51 | 52.41771 | 16.82877 | 287 ft | 5 kts | 198° |
| 2026-04-24 15:51 | 52.41733 | 16.82856 | 287 ft | 8 kts | 198° |
| 2026-04-24 15:51 | 52.41671 | 16.82869 | 287 ft | 10 kts | 125° |
| 2026-04-24 15:51 | 52.41640 | 16.82934 | 287 ft | 6 kts | 162° |
| 2026-04-24 15:52 | 52.41614 | 16.82922 | 287 ft | 6 kts | 202° |
| 2026-04-24 15:52 | 52.41602 | 16.82917 | 287 ft | 1 kts | 193° |
| 2026-04-24 15:52 | 52.41595 | 16.82914 | 287 ft | 1 kts | 192° |
| 2026-04-24 15:52 | 52.41586 | 16.82911 | 287 ft | 1 kts | 193° |
| 2026-04-24 15:53 | 52.41583 | 16.82910 | 287 ft | 0 kts | 193° |